Time;durP1;ratioP1;P1;durP2;ratioP2;P2;SDS_P1;SDS_P2;PMS_P1;PMS_P2;Temp;Humidity;BMP_temperature;BMP_pressure;BME280_temperature;BME280_humidity;BME280_pressure;Samples;Min_cycle;Max_cycle;Signal;HPM_P1;HPM_P2
2022/11/18 00:00:05;;;;;;;5.60;2.03;;;9.10;99.90;;;;;;5118787;27;20043;-63
2022/11/18 00:02:32;;;;;;;6.25;2.03;;;9.10;99.90;;;;;;5137206;27;20043;-63
2022/11/18 00:04:59;;;;;;;5.68;1.75;;;9.10;99.90;;;;;;5137037;27;20055;-65
2022/11/18 00:07:26;;;;;;;6.45;2.08;;;9.10;99.90;;;;;;5136707;27;20043;-61
2022/11/18 00:09:52;;;;;;;5.18;1.90;;;9.10;99.90;;;;;;5118453;27;20440;-63
2022/11/18 00:15:05;;;;;;;5.72;1.65;;;9.10;99.90;;;;;;5136946;27;20043;-63
2022/11/18 00:17:32;;;;;;;7.72;1.80;;;9.10;99.90;;;;;;5137132;27;20043;-62
2022/11/18 00:19:58;;;;;;;5.72;1.90;;;9.10;99.90;;;;;;5118246;27;20490;-64
2022/11/18 00:22:25;;;;;;;4.78;1.90;;;9.10;99.90;;;;;;5136437;27;20092;-63
2022/11/18 00:24:55;;;;;;;6.30;1.50;;;9.10;99.90;;;;;;5136039;27;20035;-61
2022/11/18 00:27:22;;;;;;;5.68;1.85;;;9.20;99.90;;;;;;5136731;27;20122;-61
2022/11/18 00:29:49;;;;;;;3.58;1.55;;;9.20;99.90;;;;;;5135780;27;20096;-63
2022/11/18 00:32:15;;;;;;;6.07;1.80;;;9.20;99.90;;;;;;5099257;27;20074;-64
2022/11/18 00:34:42;;;;;;;8.77;2.08;;;9.20;99.90;;;;;;5134230;27;20050;-62
2022/11/18 00:37:12;;;;;;;8.68;1.80;;;9.20;99.90;;;;;;5117713;27;20493;-62
2022/11/18 00:39:38;;;;;;;6.70;1.70;;;9.20;99.90;;;;;;5135237;27;20046;-64
2022/11/18 00:44:51;;;;;;;8.43;1.80;;;9.20;99.90;;;;;;5136234;27;20068;-65
2022/11/18 00:47:17;;;;;;;6.68;1.80;;;9.20;99.90;;;;;;5118268;27;20038;-63
2022/11/18 00:49:44;;;;;;;5.40;1.50;;;9.20;99.90;;;;;;5136535;27;20118;-65
2022/11/18 00:52:11;;;;;;;10.18;1.42;;;9.10;99.90;;;;;;5136002;27;20088;-63
2022/11/18 00:54:37;;;;;;;5.28;1.60;;;9.10;99.90;;;;;;5136102;27;20082;-64
2022/11/18 00:57:04;;;;;;;6.28;1.65;;;9.20;99.90;;;;;;5136216;27;20096;-64
2022/11/18 00:59:31;;;;;;;7.10;1.70;;;9.10;99.90;;;;;;5135118;27;20047;-64
2022/11/18 01:01:58;;;;;;;6.82;1.80;;;9.10;99.90;;;;;;5136807;27;20043;-62
2022/11/18 01:04:25;;;;;;;9.82;1.60;;;9.10;99.90;;;;;;5136359;27;20092;-62
2022/11/18 01:06:51;;;;;;;5.13;1.52;;;9.20;99.90;;;;;;5135997;27;20076;-66
2022/11/18 01:09:18;;;;;;;8.65;2.50;;;9.20;99.90;;;;;;5136243;27;20039;-62
2022/11/18 01:14:30;;;;;;;10.77;2.00;;;9.20;99.90;;;;;;5135753;27;20104;-63
2022/11/18 01:16:57;;;;;;;7.72;1.88;;;9.20;99.90;;;;;;5135599;27;20042;-62
2022/11/18 01:19:24;;;;;;;6.93;1.77;;;9.20;99.90;;;;;;5135752;27;20031;-64
2022/11/18 01:21:50;;;;;;;6.75;1.52;;;9.10;99.90;;;;;;5135739;27;20510;-63
2022/11/18 01:24:17;;;;;;;6.38;1.50;;;9.20;99.90;;;;;;5135543;27;20117;-61
2022/11/18 01:26:44;;;;;;;6.70;1.60;;;9.10;99.90;;;;;;5135691;27;20451;-62
2022/11/18 01:29:11;;;;;;;6.75;1.63;;;9.20;99.90;;;;;;5135962;27;20039;-62
2022/11/18 01:31:38;;;;;;;6.55;1.77;;;9.20;99.90;;;;;;5135247;27;20070;-62
2022/11/18 01:34:24;;;;;;;8.75;2.00;;;9.20;99.90;;;;;;5135379;27;20455;-61
2022/11/18 01:36:51;;;;;;;10.00;2.17;;;9.20;99.90;;;;;;5135495;27;20045;-64
2022/11/18 01:39:18;;;;;;;6.65;1.92;;;9.10;99.90;;;;;;5135119;27;20049;-62
2022/11/18 01:41:45;;;;;;;7.57;2.08;;;9.20;99.90;;;;;;5116830;27;20470;-63
2022/11/18 01:44:11;;;;;;;6.85;1.50;;;9.20;99.90;;;;;;5134394;27;20051;-63
2022/11/18 01:46:38;;;;;;;6.78;1.60;;;9.20;99.90;;;;;;5130662;27;20036;-61
2022/11/18 01:49:05;;;;;;;7.65;1.80;;;9.20;99.90;;;;;;5096269;28;20101;-62
2022/11/18 01:51:32;;;;;;;6.95;1.50;;;9.20;99.90;;;;;;5129880;27;20118;-64
2022/11/18 01:53:59;;;;;;;10.07;1.60;;;9.20;99.90;;;;;;5135079;27;20482;-63
2022/11/18 01:56:25;;;;;;;4.97;1.45;;;9.20;99.90;;;;;;5135092;27;20141;-63
2022/11/18 01:58:52;;;;;;;6.45;1.58;;;9.20;99.90;;;;;;5135425;27;20084;-65
2022/11/18 02:01:19;;;;;;;6.85;1.50;;;9.20;99.90;;;;;;5134548;27;20035;-63
2022/11/18 02:03:46;;;;;;;5.63;1.60;;;9.20;99.90;;;;;;5134904;27;20105;-65
2022/11/18 02:06:12;;;;;;;7.30;1.73;;;9.20;99.90;;;;;;5134719;27;20047;-64
2022/11/18 02:08:39;;;;;;;5.10;1.50;;;9.20;99.90;;;;;;5135337;27;20125;-64
2022/11/18 02:11:06;;;;;;;7.78;1.63;;;9.20;99.90;;;;;;5134791;27;20070;-64
2022/11/18 02:13:32;;;;;;;5.85;1.50;;;9.20;99.90;;;;;;5134956;27;20039;-66
2022/11/18 02:15:59;;;;;;;6.10;1.60;;;9.20;99.90;;;;;;5134988;27;20051;-64
2022/11/18 02:18:26;;;;;;;7.95;1.52;;;9.20;99.90;;;;;;5135182;27;20123;-64
2022/11/18 02:20:52;;;;;;;6.88;1.77;;;9.10;99.90;;;;;;5134625;27;20039;-62
2022/11/18 02:23:19;;;;;;;5.45;1.52;;;9.10;99.90;;;;;;5134106;27;20389;-62
2022/11/18 02:25:46;;;;;;;7.50;2.03;;;9.10;99.90;;;;;;5134887;28;20413;-64
2022/11/18 02:28:13;;;;;;;5.88;1.67;;;9.10;99.90;;;;;;5135300;28;20067;-63
2022/11/18 02:30:40;;;;;;;9.30;1.63;;;9.00;99.90;;;;;;5128658;28;20039;-64
2022/11/18 02:33:06;;;;;;;6.13;1.50;;;9.00;99.90;;;;;;5113976;28;20039;-66
2022/11/18 02:35:33;;;;;;;4.45;1.70;;;9.00;99.90;;;;;;5126823;27;20054;-65
2022/11/18 02:38:00;;;;;;;6.63;1.52;;;9.00;99.90;;;;;;5134813;28;20035;-62
2022/11/18 02:40:26;;;;;;;6.32;1.20;;;9.00;99.90;;;;;;5134406;28;20039;-65
2022/11/18 02:42:53;;;;;;;5.40;1.40;;;9.00;99.90;;;;;;5134418;28;20035;-65
2022/11/18 02:45:20;;;;;;;5.55;1.52;;;8.90;99.90;;;;;;5134694;27;20051;-66
2022/11/18 02:47:47;;;;;;;6.25;1.73;;;8.90;99.90;;;;;;5134722;28;20096;-64
2022/11/18 02:50:13;;;;;;;5.53;1.40;;;8.90;99.90;;;;;;5134238;28;20078;-65
2022/11/18 02:52:40;;;;;;;5.03;1.30;;;8.90;99.90;;;;;;5134570;28;20067;-62
2022/11/18 02:55:07;;;;;;;8.90;1.60;;;9.00;99.90;;;;;;5136984;27;20473;-65
2022/11/18 02:57:33;;;;;;;4.78;1.30;;;8.90;99.90;;;;;;5138773;27;20043;-63
2022/11/18 03:00:00;;;;;;;5.32;1.73;;;8.90;99.90;;;;;;5138406;27;20114;-62
2022/11/18 03:02:27;;;;;;;7.93;1.73;;;8.90;99.90;;;;;;5138377;27;20063;-63
2022/11/18 03:04:54;;;;;;;8.90;2.17;;;8.90;99.90;;;;;;5137584;27;20047;-64
2022/11/18 03:07:20;;;;;;;7.35;1.90;;;8.90;99.90;;;;;;5137837;27;20043;-63
2022/11/18 03:09:47;;;;;;;4.55;1.20;;;8.90;99.90;;;;;;5137053;27;20435;-64
2022/11/18 03:12:14;;;;;;;6.18;1.83;;;8.80;99.90;;;;;;5138502;27;20493;-65
2022/11/18 03:14:41;;;;;;;4.53;1.60;;;8.80;99.90;;;;;;5137941;27;20070;-64
2022/11/18 03:17:07;;;;;;;6.13;1.40;;;8.80;99.90;;;;;;5119483;27;20108;-64
2022/11/18 03:19:34;;;;;;;3.75;1.40;;;8.80;99.90;;;;;;5138357;27;20125;-62
2022/11/18 03:22:01;;;;;;;7.13;1.60;;;8.80;99.90;;;;;;5137771;27;20053;-64
2022/11/18 03:24:27;;;;;;;5.38;1.52;;;8.80;99.90;;;;;;5138194;27;20101;-63
2022/11/18 03:26:54;;;;;;;6.18;1.30;;;8.80;99.90;;;;;;5137822;27;20031;-64
2022/11/18 03:29:21;;;;;;;8.10;1.98;;;8.70;99.90;;;;;;5137655;27;20039;-63
2022/11/18 03:31:47;;;;;;;5.93;1.40;;;8.70;99.90;;;;;;5137673;27;20439;-65
2022/11/18 03:34:14;;;;;;;7.60;1.70;;;8.70;99.90;;;;;;5137727;27;20134;-64
2022/11/18 03:36:41;;;;;;;5.45;1.30;;;8.70;99.90;;;;;;5137203;27;20039;-64
2022/11/18 03:39:08;;;;;;;5.72;1.15;;;8.70;99.90;;;;;;5136932;27;20069;-64
2022/11/18 03:41:34;;;;;;;3.45;1.17;;;8.70;99.90;;;;;;5137906;27;20096;-63
2022/11/18 03:44:01;;;;;;;5.70;1.35;;;8.70;99.90;;;;;;5137646;27;20486;-62
2022/11/18 03:46:28;;;;;;;7.50;1.58;;;8.70;99.90;;;;;;5136728;27;20035;-65
2022/11/18 03:48:54;;;;;;;3.90;1.33;;;8.70;99.90;;;;;;5117307;28;20122;-64
2022/11/18 03:51:21;;;;;;;7.97;1.95;;;8.70;99.90;;;;;;5129222;27;20035;-65
2022/11/18 03:53:48;;;;;;;6.43;1.42;;;8.70;99.90;;;;;;5118514;27;20131;-64
2022/11/18 03:56:14;;;;;;;4.05;1.20;;;8.70;99.90;;;;;;5137013;27;20074;-62
2022/11/18 03:58:43;;;;;;;4.82;1.38;;;8.70;99.90;;;;;;5137481;27;20042;-66
2022/11/18 04:01:10;;;;;;;6.60;1.17;;;8.70;99.90;;;;;;5137446;27;20424;-65
2022/11/18 04:03:36;;;;;;;5.13;1.23;;;8.70;99.90;;;;;;5136896;27;20041;-65
2022/11/18 04:06:03;;;;;;;6.13;1.35;;;8.80;99.90;;;;;;5117857;27;20069;-65
2022/11/18 04:08:30;;;;;;;4.85;1.27;;;8.80;99.90;;;;;;5136946;27;20493;-66
2022/11/18 04:10:57;;;;;;;6.20;1.30;;;8.80;99.90;;;;;;5136826;27;20478;-65
2022/11/18 04:13:23;;;;;;;6.03;1.23;;;8.80;99.90;;;;;;5136937;27;20116;-64
2022/11/18 04:15:50;;;;;;;6.28;1.73;;;8.80;99.90;;;;;;5136665;27;20074;-65
2022/11/18 04:18:17;;;;;;;3.78;1.17;;;8.80;99.90;;;;;;5118484;27;20043;-64
2022/11/18 04:20:44;;;;;;;5.78;1.40;;;8.80;99.90;;;;;;5118173;27;20035;-64
2022/11/18 04:23:10;;;;;;;5.43;1.23;;;8.80;99.90;;;;;;5136894;27;20039;-64
2022/11/18 04:25:37;;;;;;;6.25;1.45;;;8.80;99.90;;;;;;5136805;27;20373;-64
2022/11/18 04:28:04;;;;;;;5.03;1.02;;;8.80;99.90;;;;;;5137209;27;20039;-63
2022/11/18 04:30:33;;;;;;;6.70;1.50;;;8.80;99.90;;;;;;5136755;27;20049;-63
2022/11/18 04:32:59;;;;;;;3.45;1.15;;;8.80;99.90;;;;;;5101467;27;20058;-62
2022/11/18 04:35:26;;;;;;;3.72;1.52;;;8.80;99.90;;;;;;5135930;27;20509;-64
2022/11/18 04:37:53;;;;;;;3.05;1.02;;;8.80;99.90;;;;;;5118285;27;20477;-63
2022/11/18 04:40:19;;;;;;;3.92;1.20;;;8.80;99.90;;;;;;5136377;27;20040;-63
2022/11/18 04:42:46;;;;;;;10.07;1.90;;;8.80;99.90;;;;;;5136610;27;20466;-63
2022/11/18 04:45:13;;;;;;;4.80;1.60;;;8.80;99.90;;;;;;5136322;27;20035;-65
2022/11/18 04:47:40;;;;;;;5.78;1.20;;;8.80;99.90;;;;;;5136304;27;20091;-65
2022/11/18 04:50:07;;;;;;;4.25;1.20;;;8.80;99.90;;;;;;5136312;27;20039;-63
2022/11/18 04:52:33;;;;;;;4.82;1.13;;;8.80;99.90;;;;;;5136415;27;20609;-64
2022/11/18 04:55:00;;;;;;;6.60;1.40;;;8.80;99.90;;;;;;5135606;27;20066;-65
2022/11/18 04:57:27;;;;;;;7.25;1.30;;;8.80;99.90;;;;;;5136269;27;20107;-64
2022/11/18 04:59:54;;;;;;;4.15;1.30;;;8.80;99.90;;;;;;5136502;27;20067;-66
2022/11/18 05:02:20;;;;;;;4.28;1.17;;;8.80;99.90;;;;;;5135395;27;20072;-64
2022/11/18 05:04:47;;;;;;;4.18;1.27;;;8.80;99.90;;;;;;5135677;27;20578;-63
2022/11/18 05:07:14;;;;;;;4.78;1.15;;;8.80;99.90;;;;;;5135995;27;20063;-62
2022/11/18 05:09:41;;;;;;;5.68;1.15;;;8.90;99.90;;;;;;5135293;27;20093;-62
2022/11/18 05:14:53;;;;;;;6.57;1.35;;;8.90;99.90;;;;;;5135750;27;20039;-65
2022/11/18 05:17:20;;;;;;;4.57;1.48;;;8.80;99.90;;;;;;5136257;27;20078;-64
2022/11/18 05:19:46;;;;;;;6.10;1.13;;;8.80;99.90;;;;;;5135135;27;20114;-63
2022/11/18 05:22:13;;;;;;;7.07;1.42;;;8.90;99.90;;;;;;5135623;27;20039;-65
2022/11/18 05:24:40;;;;;;;6.45;1.35;;;8.80;99.90;;;;;;5135219;27;20035;-65
2022/11/18 05:27:06;;;;;;;6.10;1.42;;;8.90;99.90;;;;;;5135276;27;20490;-65
2022/11/18 05:29:33;;;;;;;5.53;1.23;;;8.90;99.90;;;;;;5135473;27;20099;-64
2022/11/18 05:32:00;;;;;;;5.80;1.20;;;8.90;99.90;;;;;;5135162;27;20046;-61
2022/11/18 05:34:27;;;;;;;5.57;1.27;;;8.90;99.90;;;;;;5134888;27;20042;-62
2022/11/18 05:36:53;;;;;;;6.95;1.48;;;8.90;99.90;;;;;;5135070;27;20043;-66
2022/11/18 05:39:20;;;;;;;3.97;1.40;;;8.90;99.90;;;;;;5135034;27;20059;-66
2022/11/18 05:44:32;;;;;;;5.25;1.15;;;8.90;99.90;;;;;;5134976;27;20149;-64
2022/11/18 05:46:59;;;;;;;5.13;1.13;;;8.90;99.90;;;;;;5134156;27;20043;-65
2022/11/18 05:49:26;;;;;;;3.85;1.17;;;8.90;99.90;;;;;;5134873;27;20063;-64
2022/11/18 05:51:52;;;;;;;4.07;1.10;;;8.90;99.90;;;;;;5135405;27;20035;-64
2022/11/18 05:54:19;;;;;;;4.63;1.23;;;8.90;99.90;;;;;;5134825;27;20043;-65
2022/11/18 05:56:46;;;;;;;5.72;1.30;;;8.90;99.90;;;;;;5134631;27;20058;-64
2022/11/18 05:59:12;;;;;;;4.93;1.20;;;9.00;99.90;;;;;;5134706;27;20067;-64
2022/11/18 06:01:39;;;;;;;7.32;1.58;;;8.90;99.90;;;;;;5134581;27;20039;-64
2022/11/18 06:04:06;;;;;;;8.32;2.00;;;8.90;99.90;;;;;;5134702;27;20041;-64
2022/11/18 06:06:33;;;;;;;8.57;1.60;;;9.00;99.90;;;;;;5116025;27;20558;-65
2022/11/18 06:09:00;;;;;;;4.43;1.55;;;8.90;99.90;;;;;;5134650;27;20043;-65
2022/11/18 06:11:26;;;;;;;5.47;1.30;;;8.90;99.90;;;;;;5134428;27;20039;-66
2022/11/18 06:13:53;;;;;;;6.68;1.40;;;8.90;99.90;;;;;;5134913;27;20047;-64
2022/11/18 06:16:20;;;;;;;4.78;1.33;;;9.00;99.90;;;;;;5134506;27;20122;-63
2022/11/18 06:18:46;;;;;;;4.45;1.17;;;8.90;99.90;;;;;;5134671;27;20502;-61
2022/11/18 06:21:13;;;;;;;5.40;1.40;;;9.00;99.90;;;;;;5134577;27;20070;-63
2022/11/18 06:23:40;;;;;;;3.65;1.30;;;9.00;99.90;;;;;;5134153;27;20039;-64
2022/11/18 06:26:08;;;;;;;3.85;1.35;;;8.90;99.90;;;;;;5134275;27;20039;-65
2022/11/18 06:28:34;;;;;;;7.00;1.48;;;9.00;99.90;;;;;;5134141;27;20039;-63
2022/11/18 06:31:01;;;;;;;5.93;1.52;;;8.90;99.90;;;;;;5134730;28;20100;-67
2022/11/18 06:33:28;;;;;;;4.13;1.20;;;8.90;99.90;;;;;;5133299;28;20106;-65
2022/11/18 06:35:54;;;;;;;5.35;1.42;;;9.00;99.90;;;;;;5134008;27;20456;-63
2022/11/18 06:38:21;;;;;;;7.50;1.30;;;9.00;99.90;;;;;;5134508;28;20047;-64
2022/11/18 06:40:48;;;;;;;5.60;1.38;;;9.00;99.90;;;;;;5134118;28;20059;-63
2022/11/18 06:48:46;;;;;;;5.55;1.35;;;9.00;99.90;;;;;;5134387;28;20490;-62
2022/11/18 06:51:12;;;;;;;6.97;1.33;;;9.00;99.90;;;;;;5133904;28;20446;-61
2022/11/18 06:53:39;;;;;;;3.80;1.08;;;9.00;99.90;;;;;;5133272;28;20066;-65
2022/11/18 06:56:09;;;;;;;5.60;1.30;;;9.00;99.90;;;;;;5134097;27;20126;-62
2022/11/18 06:58:35;;;;;;;4.55;1.40;;;9.00;99.90;;;;;;5134351;28;20092;-62
2022/11/18 07:01:02;;;;;;;3.53;1.40;;;8.90;99.90;;;;;;5133591;28;20123;-63
2022/11/18 07:03:29;;;;;;;6.30;1.17;;;8.90;99.90;;;;;;5133592;28;20110;-64
2022/11/18 07:05:56;;;;;;;5.80;1.67;;;8.90;99.90;;;;;;5133857;28;20126;-65
2022/11/18 07:08:22;;;;;;;4.93;1.33;;;8.90;99.90;;;;;;5133922;28;20069;-61
2022/11/18 07:10:49;;;;;;;5.65;1.40;;;8.90;99.90;;;;;;5134205;28;20099;-65
2022/11/18 07:13:16;;;;;;;4.00;1.25;;;8.90;99.90;;;;;;5134016;28;20079;-63
2022/11/18 07:15:42;;;;;;;6.25;1.20;;;9.00;99.90;;;;;;5133381;28;20523;-65
2022/11/18 07:18:09;;;;;;;4.35;1.33;;;8.90;99.90;;;;;;5133815;28;20043;-63
2022/11/18 07:20:36;;;;;;;5.45;1.10;;;8.90;99.90;;;;;;5115282;28;20070;-63
2022/11/18 07:23:03;;;;;;;3.90;1.30;;;8.90;99.90;;;;;;5133357;28;20084;-64
2022/11/18 07:25:29;;;;;;;7.03;1.42;;;8.90;99.90;;;;;;5132919;27;20039;-63
2022/11/18 07:27:56;;;;;;;4.65;1.25;;;8.80;99.90;;;;;;5133637;28;20063;-65
2022/11/18 07:30:23;;;;;;;4.65;1.20;;;8.80;99.90;;;;;;5132935;28;20498;-66
2022/11/18 07:32:49;;;;;;;4.70;1.05;;;8.80;99.90;;;;;;5133710;28;20043;-64
2022/11/18 07:35:17;;;;;;;5.70;1.20;;;8.70;99.90;;;;;;5134102;28;20100;-66
2022/11/18 07:37:44;;;;;;;6.18;1.50;;;8.70;99.90;;;;;;5134234;28;20062;-65
2022/11/18 07:40:11;;;;;;;5.70;2.03;;;8.70;99.90;;;;;;5131533;27;20032;-66
2022/11/18 07:42:44;;;;;;;6.03;1.40;;;8.70;99.90;;;;;;5132765;27;20043;-64
2022/11/18 07:45:23;;;;;;;8.23;1.33;;;8.70;99.90;;;;;;5137134;27;20077;-65
2022/11/18 07:47:49;;;;;;;5.10;1.20;;;8.60;99.90;;;;;;5135188;27;20042;-61
2022/11/18 07:50:16;;;;;;;7.78;1.65;;;8.60;99.90;;;;;;5136499;27;20043;-64
2022/11/18 07:52:43;;;;;;;5.65;1.70;;;8.60;99.90;;;;;;5136887;27;20043;-63
2022/11/18 07:55:10;;;;;;;7.55;1.50;;;8.60;99.90;;;;;;5136464;27;20546;-64
2022/11/18 07:57:36;;;;;;;5.13;1.80;;;8.60;99.90;;;;;;5136565;27;20047;-63
2022/11/18 08:00:03;;;;;;;6.75;1.65;;;8.60;99.90;;;;;;5137130;27;20433;-61
2022/11/18 08:02:37;;;;;;;6.22;1.58;;;8.70;99.90;;;;;;5135833;27;20039;-63
2022/11/18 08:05:04;;;;;;;5.05;1.20;;;8.70;99.90;;;;;;5118300;27;20422;-62
2022/11/18 08:07:31;;;;;;;8.60;2.03;;;8.70;99.90;;;;;;5136646;27;20436;-64
2022/11/18 08:09:57;;;;;;;7.25;1.50;;;8.70;99.90;;;;;;5136595;27;20043;-64
2022/11/18 08:12:24;;;;;;;4.97;1.30;;;8.80;99.90;;;;;;5135760;27;20035;-65
2022/11/18 08:14:54;;;;;;;7.35;1.35;;;8.80;99.90;;;;;;5136441;27;20602;-62
2022/11/18 08:17:25;;;;;;;4.28;1.55;;;8.80;99.90;;;;;;5136592;27;20374;-62
2022/11/18 08:19:52;;;;;;;5.07;1.38;;;8.80;99.90;;;;;;5135528;27;20531;-64
2022/11/18 08:22:19;;;;;;;4.45;1.33;;;8.90;99.90;;;;;;5135606;27;20401;-62
2022/11/18 08:24:46;;;;;;;6.60;1.60;;;8.80;99.90;;;;;;5136231;27;20371;-62
2022/11/18 08:27:13;;;;;;;7.93;1.65;;;8.80;99.90;;;;;;5135634;27;20032;-62
2022/11/18 08:29:40;;;;;;;6.90;1.60;;;8.90;99.90;;;;;;5135615;27;20092;-61
2022/11/18 08:32:06;;;;;;;7.88;3.63;;;8.90;99.90;;;;;;5136553;27;20070;-62
2022/11/18 08:34:33;;;;;;;8.60;4.15;;;8.90;99.90;;;;;;5135672;27;20435;-63
2022/11/18 08:37:00;;;;;;;12.95;6.07;;;8.90;99.90;;;;;;5136088;27;20054;-64
2022/11/18 08:39:26;;;;;;;8.05;2.08;;;8.90;99.90;;;;;;5135827;27;20486;-62
2022/11/18 08:41:53;;;;;;;5.50;1.95;;;8.90;99.90;;;;;;5135970;27;20043;-63
2022/11/18 08:44:20;;;;;;;10.38;1.48;;;8.90;99.90;;;;;;5134848;27;20084;-63
2022/11/18 08:46:47;;;;;;;5.43;1.35;;;8.90;99.90;;;;;;5115887;27;20063;-62
2022/11/18 08:49:13;;;;;;;6.15;1.35;;;9.00;99.90;;;;;;5130934;27;20042;-62
2022/11/18 08:51:41;;;;;;;8.88;2.03;;;9.00;99.90;;;;;;5133373;27;20117;-63
2022/11/18 08:54:08;;;;;;;14.27;1.73;;;9.00;99.90;;;;;;5120323;27;20047;-64
2022/11/18 08:56:34;;;;;;;16.73;2.63;;;9.00;99.90;;;;;;5123111;27;20370;-64
2022/11/18 08:59:01;;;;;;;7.60;1.63;;;9.10;99.90;;;;;;5116423;27;20043;-64
2022/11/18 09:01:28;;;;;;;7.20;1.42;;;9.10;99.90;;;;;;5117000;27;20478;-64
2022/11/18 09:03:56;;;;;;;5.78;1.50;;;9.10;99.90;;;;;;5135324;27;20031;-62
2022/11/18 09:06:23;;;;;;;8.70;1.75;;;9.10;99.90;;;;;;5135298;27;20410;-62
2022/11/18 09:08:51;;;;;;;8.00;1.30;;;9.20;99.90;;;;;;5134577;27;20043;-66
2022/11/18 09:11:17;;;;;;;5.60;1.38;;;9.20;99.90;;;;;;5133749;27;20063;-62
2022/11/18 09:13:44;;;;;;;7.35;1.42;;;9.20;99.90;;;;;;5134421;27;20096;-63
2022/11/18 09:16:32;;;;;;;10.35;1.83;;;9.20;99.90;;;;;;5113169;28;20073;-64
2022/11/18 09:18:59;;;;;;;5.60;1.73;;;9.20;99.90;;;;;;5113913;27;20130;-63
2022/11/18 09:21:45;;;;;;;5.10;1.55;;;9.20;99.90;;;;;;5115497;27;20556;-64
2022/11/18 09:24:12;;;;;;;4.80;1.33;;;9.30;99.90;;;;;;5134431;27;20043;-63
2022/11/18 09:26:39;;;;;;;6.45;1.50;;;9.20;99.90;;;;;;5115653;27;20038;-62
2022/11/18 09:29:07;;;;;;;8.93;2.03;;;9.20;99.90;;;;;;5133983;27;20039;-62
2022/11/18 09:31:34;;;;;;;5.43;1.65;;;9.20;99.90;;;;;;5133735;27;20131;-63
2022/11/18 09:34:00;;;;;;;8.98;2.38;;;9.20;99.90;;;;;;5134453;27;20035;-64
2022/11/18 09:36:27;;;;;;;6.00;1.38;;;9.30;99.90;;;;;;5131089;27;20039;-63
2022/11/18 09:38:54;;;;;;;4.13;1.42;;;9.30;99.90;;;;;;5133412;27;20387;-65
2022/11/18 09:41:22;;;;;;;6.68;1.73;;;9.30;99.90;;;;;;5134466;27;20042;-67
2022/11/18 09:43:48;;;;;;;6.78;1.83;;;9.30;99.90;;;;;;5134404;27;20035;-65
2022/11/18 09:46:15;;;;;;;9.90;1.95;;;9.30;99.90;;;;;;5132885;27;20092;-62
2022/11/18 09:51:27;;;;;;;7.78;1.83;;;9.40;99.90;;;;;;5127779;27;20031;-63
2022/11/18 09:53:54;;;;;;;9.43;1.70;;;9.40;99.90;;;;;;5133232;27;20113;-62
2022/11/18 09:56:21;;;;;;;8.65;1.85;;;9.40;99.90;;;;;;5132582;27;20084;-63
2022/11/18 09:58:47;;;;;;;9.07;1.67;;;9.40;99.90;;;;;;5130838;27;20125;-62
2022/11/18 10:01:14;;;;;;;10.25;1.73;;;9.50;99.90;;;;;;5132659;27;20118;-64
2022/11/18 10:03:41;;;;;;;7.50;1.85;;;9.50;99.90;;;;;;5132288;27;20054;-63
2022/11/18 10:06:12;;;;;;;8.27;2.00;;;9.50;99.90;;;;;;5132514;27;20074;-61
2022/11/18 10:08:43;;;;;;;5.35;1.30;;;9.60;99.90;;;;;;5132210;27;20117;-64
2022/11/18 10:11:10;;;;;;;8.13;1.67;;;9.60;99.90;;;;;;5131395;27;20538;-63
2022/11/18 10:13:37;;;;;;;5.95;1.92;;;9.60;99.90;;;;;;5129351;27;20039;-65
2022/11/18 10:16:03;;;;;;;7.72;1.88;;;9.70;99.90;;;;;;5130357;27;20118;-64
2022/11/18 10:18:30;;;;;;;5.90;1.88;;;9.70;99.90;;;;;;5114399;27;20668;-64
2022/11/18 10:21:17;;;;;;;7.10;1.52;;;9.70;99.90;;;;;;5117179;27;20038;-64
2022/11/18 10:23:44;;;;;;;8.65;2.38;;;9.70;99.90;;;;;;5113304;27;20456;-63
2022/11/18 10:26:10;;;;;;;15.05;8.50;;;9.80;99.90;;;;;;5129605;27;20121;-64
2022/11/18 10:28:37;;;;;;;11.40;4.68;;;9.80;99.90;;;;;;5128151;27;20031;-64
2022/11/18 10:31:04;;;;;;;5.55;1.67;;;9.80;99.90;;;;;;5128331;28;20027;-65
2022/11/18 10:33:31;;;;;;;9.48;2.30;;;9.80;99.90;;;;;;5131986;28;20119;-64
2022/11/18 10:35:58;;;;;;;10.55;2.08;;;9.90;99.90;;;;;;5132284;28;20522;-64
2022/11/18 10:38:24;;;;;;;7.65;1.80;;;9.90;99.90;;;;;;5130129;28;20045;-63
2022/11/18 10:40:51;;;;;;;8.50;1.60;;;9.90;99.90;;;;;;5116419;28;20070;-65
2022/11/18 10:43:18;;;;;;;8.05;2.13;;;9.90;99.90;;;;;;5112817;28;20526;-66
2022/11/18 10:45:44;;;;;;;7.78;1.70;;;9.90;99.90;;;;;;5130557;27;20084;-64
2022/11/18 10:48:11;;;;;;;5.65;1.50;;;10.00;99.90;;;;;;5123548;27;20081;-64
2022/11/18 10:50:38;;;;;;;10.95;1.73;;;10.00;99.90;;;;;;5128246;28;20043;-64
2022/11/18 10:53:05;;;;;;;5.05;1.52;;;10.00;99.90;;;;;;5130856;28;20104;-66
2022/11/18 10:55:31;;;;;;;7.57;1.85;;;10.00;99.90;;;;;;5112827;28;20144;-64
2022/11/18 10:57:58;;;;;;;7.68;1.80;;;10.10;99.90;;;;;;5132573;28;20047;-64
2022/11/18 11:00:25;;;;;;;6.57;1.42;;;10.10;99.90;;;;;;5131098;28;20039;-64
2022/11/18 11:02:52;;;;;;;6.82;1.63;;;10.10;99.90;;;;;;5114401;28;20039;-63
2022/11/18 11:05:19;;;;;;;6.10;1.70;;;10.10;99.90;;;;;;5132795;28;20047;-63
2022/11/18 11:07:46;;;;;;;10.43;2.20;;;10.10;99.90;;;;;;5133309;28;20466;-63
2022/11/18 11:10:13;;;;;;;8.65;2.22;;;10.20;99.90;;;;;;5133890;28;20070;-64
2022/11/18 11:12:45;;;;;;;9.27;1.88;;;10.20;99.90;;;;;;5114814;28;20100;-65
2022/11/18 11:15:12;;;;;;;9.93;2.83;;;10.20;99.90;;;;;;5134012;27;20505;-65
2022/11/18 11:17:39;;;;;;;8.57;1.98;;;10.20;99.90;;;;;;5136717;27;20397;-67
2022/11/18 11:20:06;;;;;;;6.78;1.88;;;10.30;99.90;;;;;;5136998;27;20041;-63
2022/11/18 11:22:32;;;;;;;7.32;1.65;;;10.30;99.90;;;;;;5136584;27;20085;-65
2022/11/18 11:24:59;;;;;;;6.47;1.58;;;10.40;99.90;;;;;;5127102;27;20444;-64
2022/11/18 11:27:26;;;;;;;6.35;1.50;;;10.40;99.90;;;;;;5129445;27;20423;-64
2022/11/18 11:30:13;;;;;;;9.77;1.80;;;10.40;99.90;;;;;;5113336;27;20039;-63
2022/11/18 11:32:39;;;;;;;6.25;1.70;;;10.40;99.90;;;;;;5129793;27;20122;-64
2022/11/18 11:35:06;;;;;;;4.97;1.58;;;10.50;99.90;;;;;;5118248;27;20134;-63
2022/11/18 11:37:33;;;;;;;9.23;2.00;;;10.50;99.90;;;;;;5130805;27;20039;-64
2022/11/18 11:40:00;;;;;;;6.22;1.50;;;10.50;99.90;;;;;;5136570;27;20084;-63
2022/11/18 11:42:26;;;;;;;5.72;1.52;;;10.50;99.90;;;;;;5136700;27;20043;-66
2022/11/18 11:44:53;;;;;;;9.02;1.55;;;10.60;99.90;;;;;;5136372;27;20486;-64
2022/11/18 11:50:05;;;;;;;6.07;1.75;;;10.60;99.90;;;;;;5135056;27;20039;-65
2022/11/18 11:52:32;;;;;;;5.57;1.67;;;10.70;99.90;;;;;;5131303;27;20064;-63
2022/11/18 11:54:58;;;;;;;5.45;1.50;;;10.70;99.90;;;;;;5117264;27;20606;-64
2022/11/18 11:57:25;;;;;;;5.72;1.48;;;10.70;99.90;;;;;;5135166;27;20058;-65
2022/11/18 11:59:52;;;;;;;6.85;1.88;;;10.80;99.90;;;;;;5136104;27;20046;-64
2022/11/18 12:02:19;;;;;;;5.05;1.73;;;10.80;99.90;;;;;;5136468;27;20084;-63
2022/11/18 12:04:46;;;;;;;4.50;1.10;;;10.80;99.90;;;;;;5117321;27;20061;-66
2022/11/18 12:07:13;;;;;;;5.78;1.45;;;10.80;99.90;;;;;;5135137;27;20039;-64
2022/11/18 12:09:40;;;;;;;7.88;1.30;;;10.90;99.90;;;;;;5128303;27;20712;-65
2022/11/18 12:12:33;;;;;;;6.20;1.45;;;10.90;99.90;;;;;;5134834;27;20494;-66
2022/11/18 12:14:53;;;;;;;9.07;1.80;;;10.90;99.90;;;;;;5134741;27;20092;-62
2022/11/18 12:17:20;;;;;;;3.70;1.20;;;11.00;99.90;;;;;;5134638;27;20035;-63
2022/11/18 12:19:47;;;;;;;6.18;1.70;;;11.00;99.90;;;;;;5135116;27;20110;-63
2022/11/18 12:22:14;;;;;;;6.60;1.95;;;11.00;99.90;;;;;;5136223;27;20041;-65
2022/11/18 12:24:41;;;;;;;4.00;1.35;;;11.00;99.90;;;;;;5135615;27;20043;-64
2022/11/18 12:27:08;;;;;;;4.38;2.08;;;11.10;99.90;;;;;;5132068;27;20523;-64
2022/11/18 12:29:34;;;;;;;7.05;1.50;;;11.10;99.90;;;;;;5134692;27;20039;-64
2022/11/18 12:32:01;;;;;;;7.70;1.85;;;11.10;99.90;;;;;;5135907;27;20122;-66
2022/11/18 12:34:28;;;;;;;6.28;1.40;;;11.10;99.90;;;;;;5117203;27;20482;-64
2022/11/18 12:36:55;;;;;;;5.72;1.58;;;11.10;99.90;;;;;;5135742;27;20072;-62
2022/11/18 12:39:21;;;;;;;4.00;1.77;;;11.20;99.90;;;;;;5135699;27;20047;-64
2022/11/18 12:44:33;;;;;;;6.90;1.42;;;11.20;99.90;;;;;;5125396;27;20032;-64
2022/11/18 12:47:00;;;;;;;5.32;1.38;;;11.20;99.90;;;;;;5135922;27;20126;-65
2022/11/18 12:49:27;;;;;;;6.28;1.30;;;11.10;99.90;;;;;;5135038;27;20047;-66
2022/11/18 12:51:54;;;;;;;4.05;1.30;;;11.20;99.90;;;;;;5135438;27;20047;-65
2022/11/18 12:54:20;;;;;;;6.25;1.27;;;11.20;99.90;;;;;;5130943;27;20067;-65
2022/11/18 12:56:47;;;;;;;5.18;1.23;;;11.20;99.90;;;;;;5135492;27;20047;-65
2022/11/18 12:59:14;;;;;;;8.07;1.50;;;11.40;99.90;;;;;;5134914;27;20525;-64
2022/11/18 13:01:41;;;;;;;4.35;1.15;;;11.50;99.90;;;;;;5135279;27;20043;-65
2022/11/18 13:04:08;;;;;;;5.25;1.20;;;11.50;99.90;;;;;;5135076;27;20039;-67
2022/11/18 13:06:35;;;;;;;8.10;1.30;;;11.60;99.90;;;;;;5135027;27;20482;-65
2022/11/18 13:09:01;;;;;;;3.63;1.02;;;11.70;99.90;;;;;;5135282;27;20043;-67
2022/11/18 13:11:43;;;;;;;4.82;1.40;;;11.70;99.90;;;;;;5116970;27;20046;-63
2022/11/18 13:19:41;;;;;;;3.65;0.93;;;11.70;99.90;;;;;;5134818;27;20039;-65
2022/11/18 13:24:53;;;;;;;3.60;1.02;;;11.80;99.90;;;;;;5130723;27;20043;-62
2022/11/18 13:27:20;;;;;;;3.90;1.10;;;11.80;99.90;;;;;;5133755;27;20035;-64
2022/11/18 13:29:46;;;;;;;5.85;1.30;;;11.80;99.90;;;;;;5134428;27;20546;-62